sensor_id;sensor_type;location;lat;lon;timestamp;pressure;altitude;pressure_sealevel;temperature;humidity
76195;BME280;64964;48.694;21.206;2023-02-10T00:01:09;99890.13;;;-4.93;61.60
76195;BME280;64964;48.694;21.206;2023-02-10T00:03:35;99889.25;;;-4.92;61.89
76195;BME280;64964;48.694;21.206;2023-02-10T00:06:01;99878.88;;;-4.90;61.90
76195;BME280;64964;48.694;21.206;2023-02-10T00:08:27;99880.59;;;-4.89;62.00
76195;BME280;64964;48.694;21.206;2023-02-10T00:10:58;99880.59;;;-4.89;62.51
76195;BME280;64964;48.694;21.206;2023-02-10T00:13:24;99873.72;;;-4.89;64.56
76195;BME280;64964;48.694;21.206;2023-02-10T00:15:49;99876.31;;;-4.90;63.41
76195;BME280;64964;48.694;21.206;2023-02-10T00:18:15;99867.72;;;-4.91;62.93
76195;BME280;64964;48.694;21.206;2023-02-10T00:20:40;99864.31;;;-4.91;62.70
76195;BME280;64964;48.694;21.206;2023-02-10T00:23:05;99870.34;;;-4.94;62.21
76195;BME280;64964;48.694;21.206;2023-02-10T00:25:34;99873.81;;;-4.95;62.73
76195;BME280;64964;48.694;21.206;2023-02-10T00:27:59;99869.53;;;-4.96;61.46
76195;BME280;64964;48.694;21.206;2023-02-10T00:30:25;99873.06;;;-5.00;62.45
76195;BME280;64964;48.694;21.206;2023-02-10T00:32:50;99868.78;;;-5.03;61.82
76195;BME280;64964;48.694;21.206;2023-02-10T00:35:15;99876.56;;;-5.04;62.83
76195;BME280;64964;48.694;21.206;2023-02-10T00:37:41;99869.72;;;-5.05;61.98
76195;BME280;64964;48.694;21.206;2023-02-10T00:40:06;99873.13;;;-5.06;62.21
76195;BME280;64964;48.694;21.206;2023-02-10T00:42:32;99866.31;;;-5.09;62.37
76195;BME280;64964;48.694;21.206;2023-02-10T00:44:57;99863.75;;;-5.10;61.94
76195;BME280;64964;48.694;21.206;2023-02-10T00:47:23;99862.97;;;-5.14;61.66
76195;BME280;64964;48.694;21.206;2023-02-10T00:49:51;99855.25;;;-5.15;61.30
76195;BME280;64964;48.694;21.206;2023-02-10T00:52:16;99859.59;;;-5.17;61.26
76195;BME280;64964;48.694;21.206;2023-02-10T00:54:42;99871.66;;;-5.19;62.80
76195;BME280;64964;48.694;21.206;2023-02-10T00:57:08;99874.31;;;-5.22;63.55
76195;BME280;64964;48.694;21.206;2023-02-10T00:59:33;99871.69;;;-5.21;64.80
76195;BME280;64964;48.694;21.206;2023-02-10T01:01:58;99873.38;;;-5.20;64.69
76195;BME280;64964;48.694;21.206;2023-02-10T01:04:24;99871.66;;;-5.18;64.03
76195;BME280;64964;48.694;21.206;2023-02-10T01:06:49;99869.91;;;-5.17;62.98
76195;BME280;64964;48.694;21.206;2023-02-10T01:09:15;99857.88;;;-5.18;62.59
76195;BME280;64964;48.694;21.206;2023-02-10T01:11:40;99857.06;;;-5.20;62.34
76195;BME280;64964;48.694;21.206;2023-02-10T01:14:06;99842.47;;;-5.23;62.69
76195;BME280;64964;48.694;21.206;2023-02-10T01:16:31;99845.97;;;-5.26;63.28
76195;BME280;64964;48.694;21.206;2023-02-10T01:18:58;99841.69;;;-5.25;63.38
76195;BME280;64964;48.694;21.206;2023-02-10T01:21:24;99840.81;;;-5.26;62.73
76195;BME280;64964;48.694;21.206;2023-02-10T01:23:49;99844.28;;;-5.28;62.03
76195;BME280;64964;48.694;21.206;2023-02-10T01:26:15;99844.41;;;-5.34;62.03
76195;BME280;64964;48.694;21.206;2023-02-10T01:28:41;99844.44;;;-5.37;62.44
76195;BME280;64964;48.694;21.206;2023-02-10T01:31:09;99846.22;;;-5.41;63.20
76195;BME280;64964;48.694;21.206;2023-02-10T01:33:35;99838.53;;;-5.42;62.40
76195;BME280;64964;48.694;21.206;2023-02-10T01:36:08;99833.41;;;-5.45;64.53
76195;BME280;64964;48.694;21.206;2023-02-10T01:38:34;99829.13;;;-5.46;63.49
76195;BME280;64964;48.694;21.206;2023-02-10T01:41:00;99821.34;;;-5.43;64.44
76195;BME280;64964;48.694;21.206;2023-02-10T01:43:26;99824.88;;;-5.47;64.20
76195;BME280;64964;48.694;21.206;2023-02-10T01:45:51;99826.56;;;-5.48;65.59
76195;BME280;64964;48.694;21.206;2023-02-10T01:48:17;99822.28;;;-5.49;66.14
76195;BME280;64964;48.694;21.206;2023-02-10T01:50:59;99813.84;;;-5.56;67.63
76195;BME280;64964;48.694;21.206;2023-02-10T01:53:26;99813.00;;;-5.58;67.13
76195;BME280;64964;48.694;21.206;2023-02-10T01:55:55;99817.25;;;-5.57;66.25
76195;BME280;64964;48.694;21.206;2023-02-10T01:58:26;99819.84;;;-5.57;64.54
76195;BME280;64964;48.694;21.206;2023-02-10T02:00:54;99835.28;;;-5.55;65.07
76195;BME280;64964;48.694;21.206;2023-02-10T02:03:19;99833.56;;;-5.56;64.98
76195;BME280;64964;48.694;21.206;2023-02-10T02:05:45;99833.56;;;-5.56;65.40
76195;BME280;64964;48.694;21.206;2023-02-10T02:08:16;99832.72;;;-5.57;64.36
76195;BME280;64964;48.694;21.206;2023-02-10T02:21:50;99822.16;;;-5.94;65.01
76195;BME280;64964;48.694;21.206;2023-02-10T02:27:28;99827.50;;;-6.08;64.12
76195;BME280;64964;48.694;21.206;2023-02-10T02:32:54;99828.44;;;-6.15;64.60
76195;BME280;64964;48.694;21.206;2023-02-10T02:35:26;99824.16;;;-6.16;64.16
76195;BME280;64964;48.694;21.206;2023-02-10T02:37:54;99825.06;;;-6.17;63.71
76195;BME280;64964;48.694;21.206;2023-02-10T02:40:20;99818.22;;;-6.19;63.78
76195;BME280;64964;48.694;21.206;2023-02-10T02:42:45;99807.09;;;-6.21;64.23
76195;BME280;64964;48.694;21.206;2023-02-10T02:45:18;99803.69;;;-6.23;66.20
76195;BME280;64964;48.694;21.206;2023-02-10T02:48:05;99784.78;;;-6.21;66.17
76195;BME280;64964;48.694;21.206;2023-02-10T02:50:48;99777.88;;;-6.19;66.89
76195;BME280;64964;48.694;21.206;2023-02-10T02:56:20;99773.50;;;-6.12;69.40
76195;BME280;64964;48.694;21.206;2023-02-10T02:59:11;99764.88;;;-6.08;68.07
76195;BME280;64964;48.694;21.206;2023-02-10T03:01:49;99752.00;;;-6.08;67.58
76195;BME280;64964;48.694;21.206;2023-02-10T03:04:17;99752.03;;;-6.10;68.20
76195;BME280;64964;48.694;21.206;2023-02-10T03:06:43;99760.56;;;-6.08;66.28
76195;BME280;64964;48.694;21.206;2023-02-10T03:09:09;99760.59;;;-6.09;66.20
76195;BME280;64964;48.694;21.206;2023-02-10T03:11:35;99770.84;;;-6.08;66.96
76195;BME280;64964;48.694;21.206;2023-02-10T03:14:00;99775.13;;;-6.05;66.19
76195;BME280;64964;48.694;21.206;2023-02-10T03:16:26;99785.38;;;-6.04;66.83
76195;BME280;64964;48.694;21.206;2023-02-10T03:18:51;99790.50;;;-6.02;65.74
76195;BME280;64964;48.694;21.206;2023-02-10T03:21:16;99788.81;;;-6.03;64.28
76195;BME280;64964;48.694;21.206;2023-02-10T03:23:42;99785.44;;;-6.07;63.79
76195;BME280;64964;48.694;21.206;2023-02-10T03:26:07;99787.25;;;-6.15;65.33
76195;BME280;64964;48.694;21.206;2023-02-10T03:28:33;99789.88;;;-6.16;64.73
76195;BME280;64964;48.694;21.206;2023-02-10T03:31:02;99807.06;;;-6.18;64.29
76195;BME280;64964;48.694;21.206;2023-02-10T03:33:28;99808.81;;;-6.23;64.64
76195;BME280;64964;48.694;21.206;2023-02-10T03:35:53;99804.59;;;-6.26;64.55
76195;BME280;64964;48.694;21.206;2023-02-10T03:38:19;99810.59;;;-6.27;64.94
76195;BME280;64964;48.694;21.206;2023-02-10T03:40:48;99813.25;;;-6.33;65.53
76195;BME280;64964;48.694;21.206;2023-02-10T03:43:14;99814.94;;;-6.31;65.09
76195;BME280;64964;48.694;21.206;2023-02-10T03:45:39;99807.25;;;-6.34;65.53
76195;BME280;64964;48.694;21.206;2023-02-10T03:48:05;99814.09;;;-6.33;66.26
76195;BME280;64964;48.694;21.206;2023-02-10T03:50:30;99818.38;;;-6.32;66.07
76195;BME280;64964;48.694;21.206;2023-02-10T03:52:56;99820.03;;;-6.28;64.89
76195;BME280;64964;48.694;21.206;2023-02-10T03:55:21;99811.47;;;-6.28;64.95
76195;BME280;64964;48.694;21.206;2023-02-10T03:57:47;99819.19;;;-6.28;66.32
76195;BME280;64964;48.694;21.206;2023-02-10T04:00:13;99813.97;;;-6.23;64.88
76195;BME280;64964;48.694;21.206;2023-02-10T04:02:39;99810.56;;;-6.22;66.00
76195;BME280;64964;48.694;21.206;2023-02-10T04:05:04;99813.91;;;-6.19;64.98
76195;BME280;64964;48.694;21.206;2023-02-10T04:07:30;99812.19;;;-6.17;65.43
76195;BME280;64964;48.694;21.206;2023-02-10T04:09:55;99818.16;;;-6.15;65.61
76195;BME280;64964;48.694;21.206;2023-02-10T04:12:21;99801.00;;;-6.14;65.35
76195;BME280;64964;48.694;21.206;2023-02-10T04:14:46;99808.69;;;-6.13;65.94
76195;BME280;64964;48.694;21.206;2023-02-10T04:17:11;99802.66;;;-6.12;65.38
76195;BME280;64964;48.694;21.206;2023-02-10T04:19:37;99816.38;;;-6.10;65.34
76195;BME280;64964;48.694;21.206;2023-02-10T04:22:02;99815.50;;;-6.09;66.00
76195;BME280;64964;48.694;21.206;2023-02-10T04:24:28;99817.22;;;-6.09;68.66
76195;BME280;64964;48.694;21.206;2023-02-10T04:26:53;99817.13;;;-6.03;66.39
76195;BME280;64964;48.694;21.206;2023-02-10T04:29:18;99814.53;;;-6.00;65.69
76195;BME280;64964;48.694;21.206;2023-02-10T04:31:44;99816.25;;;-6.00;64.75
76195;BME280;64964;48.694;21.206;2023-02-10T04:34:09;99823.16;;;-6.04;65.58
76195;BME280;64964;48.694;21.206;2023-02-10T04:36:34;99818.03;;;-6.06;65.25
76195;BME280;64964;48.694;21.206;2023-02-10T04:39:00;99817.16;;;-6.06;65.42
76195;BME280;64964;48.694;21.206;2023-02-10T04:41:26;99803.47;;;-6.08;66.59
76195;BME280;64964;48.694;21.206;2023-02-10T04:43:51;99802.66;;;-6.10;66.57
76195;BME280;64964;48.694;21.206;2023-02-10T04:46:17;99789.91;;;-6.18;67.01
76195;BME280;64964;48.694;21.206;2023-02-10T04:48:42;99793.31;;;-6.19;67.69
76195;BME280;64964;48.694;21.206;2023-02-10T04:51:09;99784.75;;;-6.18;66.73
76195;BME280;64964;48.694;21.206;2023-02-10T04:53:36;99790.81;;;-6.22;66.59
76195;BME280;64964;48.694;21.206;2023-02-10T04:56:01;99796.09;;;-6.33;68.39
76195;BME280;64964;48.694;21.206;2023-02-10T04:58:28;99809.88;;;-6.35;67.52
76195;BME280;64964;48.694;21.206;2023-02-10T05:00:54;99808.09;;;-6.33;66.65
76195;BME280;64964;48.694;21.206;2023-02-10T05:03:21;99809.78;;;-6.32;67.08
76195;BME280;64964;48.694;21.206;2023-02-10T05:05:46;99812.38;;;-6.31;65.20
76195;BME280;64964;48.694;21.206;2023-02-10T05:08:11;99826.09;;;-6.30;65.50
76195;BME280;64964;48.694;21.206;2023-02-10T05:10:37;99837.22;;;-6.31;65.64
76195;BME280;64964;48.694;21.206;2023-02-10T05:13:02;99827.84;;;-6.34;66.04
76195;BME280;64964;48.694;21.206;2023-02-10T05:15:28;99836.41;;;-6.33;66.21
76195;BME280;64964;48.694;21.206;2023-02-10T05:17:53;99838.13;;;-6.34;66.19
76195;BME280;64964;48.694;21.206;2023-02-10T05:20:18;99842.47;;;-6.37;66.59
76195;BME280;64964;48.694;21.206;2023-02-10T05:22:44;99856.22;;;-6.40;66.09
76195;BME280;64964;48.694;21.206;2023-02-10T05:25:09;99861.44;;;-6.46;65.67
76195;BME280;64964;48.694;21.206;2023-02-10T05:27:35;99864.91;;;-6.50;65.52
76195;BME280;64964;48.694;21.206;2023-02-10T05:30:01;99856.38;;;-6.54;65.37
76195;BME280;64964;48.694;21.206;2023-02-10T05:32:26;99857.28;;;-6.58;64.67
76195;BME280;64964;48.694;21.206;2023-02-10T05:34:52;99855.63;;;-6.63;65.22
76195;BME280;64964;48.694;21.206;2023-02-10T05:37:29;99864.25;;;-6.67;65.03
76195;BME280;64964;48.694;21.206;2023-02-10T05:39:55;99863.44;;;-6.74;65.18
76195;BME280;64964;48.694;21.206;2023-02-10T05:42:20;99860.94;;;-6.77;64.98
76195;BME280;64964;48.694;21.206;2023-02-10T05:44:46;99868.66;;;-6.77;65.17
76195;BME280;64964;48.694;21.206;2023-02-10T05:47:11;99857.53;;;-6.82;65.72
76195;BME280;64964;48.694;21.206;2023-02-10T05:49:36;99863.56;;;-6.83;65.51
76195;BME280;64964;48.694;21.206;2023-02-10T05:52:02;99861.84;;;-6.84;66.09
76195;BME280;64964;48.694;21.206;2023-02-10T05:54:27;99855.84;;;-6.83;66.40
76195;BME280;64964;48.694;21.206;2023-02-10T05:56:54;99856.72;;;-6.84;66.79
76195;BME280;64964;48.694;21.206;2023-02-10T05:59:19;99860.09;;;-6.81;66.65
76195;BME280;64964;48.694;21.206;2023-02-10T06:01:44;99854.94;;;-6.79;66.92
76195;BME280;64964;48.694;21.206;2023-02-10T06:04:10;99861.84;;;-6.81;66.76
76195;BME280;64964;48.694;21.206;2023-02-10T06:06:35;99860.09;;;-6.79;66.69
76195;BME280;64964;48.694;21.206;2023-02-10T06:09:01;99867.78;;;-6.78;66.62
76195;BME280;64964;48.694;21.206;2023-02-10T06:11:26;99861.75;;;-6.75;66.80
76195;BME280;64964;48.694;21.206;2023-02-10T06:13:51;99866.84;;;-6.70;66.46
76195;BME280;64964;48.694;21.206;2023-02-10T06:16:17;99868.53;;;-6.66;67.24
76195;BME280;64964;48.694;21.206;2023-02-10T06:18:42;99869.34;;;-6.63;67.61
76195;BME280;64964;48.694;21.206;2023-02-10T06:21:08;99865.84;;;-6.57;67.20
76195;BME280;64964;48.694;21.206;2023-02-10T06:23:34;99876.94;;;-6.52;67.16
76195;BME280;64964;48.694;21.206;2023-02-10T06:25:59;99870.88;;;-6.46;66.83
76195;BME280;64964;48.694;21.206;2023-02-10T06:28:26;99869.06;;;-6.40;67.34
76195;BME280;64964;48.694;21.206;2023-02-10T06:30:52;99867.28;;;-6.33;66.54
76195;BME280;64964;48.694;21.206;2023-02-10T06:33:18;99863.78;;;-6.28;66.71
76195;BME280;64964;48.694;21.206;2023-02-10T06:35:44;99858.56;;;-6.21;66.32
76195;BME280;64964;48.694;21.206;2023-02-10T06:38:10;99872.19;;;-6.15;66.48
76195;BME280;64964;48.694;21.206;2023-02-10T06:40:36;99873.81;;;-6.06;65.36
76195;BME280;64964;48.694;21.206;2023-02-10T06:43:01;99890.88;;;-5.97;64.85
76195;BME280;64964;48.694;21.206;2023-02-10T06:45:27;99888.16;;;-5.90;65.49
76195;BME280;64964;48.694;21.206;2023-02-10T06:47:53;99890.63;;;-5.81;65.43
76195;BME280;64964;48.694;21.206;2023-02-10T06:50:19;99906.81;;;-5.72;66.31
76195;BME280;64964;48.694;21.206;2023-02-10T06:52:45;99905.09;;;-5.72;65.77
76195;BME280;64964;48.694;21.206;2023-02-10T06:55:11;99907.59;;;-5.67;66.29
76195;BME280;64964;48.694;21.206;2023-02-10T06:57:36;99898.13;;;-5.64;65.73
76195;BME280;64964;48.694;21.206;2023-02-10T07:00:10;99884.28;;;-5.58;66.00
76195;BME280;64964;48.694;21.206;2023-02-10T07:02:36;99890.19;;;-5.50;64.87
76195;BME280;64964;48.694;21.206;2023-02-10T07:05:03;99893.44;;;-5.39;64.29
76195;BME280;64964;48.694;21.206;2023-02-10T07:07:30;99894.22;;;-5.34;64.74
76195;BME280;64964;48.694;21.206;2023-02-10T07:09:56;99884.63;;;-5.24;64.71
76195;BME280;64964;48.694;21.206;2023-02-10T07:12:21;99876.75;;;-5.16;65.02
76195;BME280;64964;48.694;21.206;2023-02-10T07:14:46;99875.03;;;-5.16;66.15
76195;BME280;64964;48.694;21.206;2023-02-10T07:17:12;99883.53;;;-5.09;65.40
76195;BME280;64964;48.694;21.206;2023-02-10T07:19:37;99881.66;;;-5.01;64.90
76195;BME280;64964;48.694;21.206;2023-02-10T07:22:03;99882.31;;;-4.88;64.39
76195;BME280;64964;48.694;21.206;2023-02-10T07:24:32;99873.56;;;-4.81;64.89
76195;BME280;64964;48.694;21.206;2023-02-10T07:26:57;99867.47;;;-4.77;65.17
76195;BME280;64964;48.694;21.206;2023-02-10T07:29:23;99863.88;;;-4.67;64.21
76195;BME280;64964;48.694;21.206;2023-02-10T07:31:48;99869.81;;;-4.65;65.18
76195;BME280;64964;48.694;21.206;2023-02-10T07:34:14;99878.28;;;-4.57;64.26
76195;BME280;64964;48.694;21.206;2023-02-10T07:36:39;99859.97;;;-4.44;63.73
76195;BME280;64964;48.694;21.206;2023-02-10T07:39:04;99875.19;;;-4.29;63.94
76195;BME280;64964;48.694;21.206;2023-02-10T07:41:30;99869.88;;;-4.21;63.46
76195;BME280;64964;48.694;21.206;2023-02-10T07:43:55;99866.19;;;-4.11;63.11
76195;BME280;64964;48.694;21.206;2023-02-10T07:46:20;99878.75;;;-3.94;62.99
76195;BME280;64964;48.694;21.206;2023-02-10T07:48:46;99875.97;;;-3.84;62.47
76195;BME280;64964;48.694;21.206;2023-02-10T07:51:11;99878.97;;;-3.63;62.45
76195;BME280;64964;48.694;21.206;2023-02-10T07:53:37;99877.63;;;-3.44;61.56
76195;BME280;64964;48.694;21.206;2023-02-10T07:56:03;99881.44;;;-3.23;61.03
76195;BME280;64964;48.694;21.206;2023-02-10T07:58:28;99883.50;;;-3.00;60.55
76195;BME280;64964;48.694;21.206;2023-02-10T08:00:55;99878.69;;;-2.81;59.91
76195;BME280;64964;48.694;21.206;2023-02-10T08:03:21;99882.38;;;-2.57;59.39
76195;BME280;64964;48.694;21.206;2023-02-10T08:05:46;99889.50;;;-2.34;59.09
76195;BME280;64964;48.694;21.206;2023-02-10T08:08:14;99893.00;;;-1.74;57.91
76195;BME280;64964;48.694;21.206;2023-02-10T08:10:40;99878.56;;;-1.01;56.56
76195;BME280;64964;48.694;21.206;2023-02-10T08:13:05;99873.31;;;-0.01;54.59
76195;BME280;64964;48.694;21.206;2023-02-10T08:15:31;99876.63;;;0.72;52.93
76195;BME280;64964;48.694;21.206;2023-02-10T08:17:58;99877.53;;;1.34;51.16
76195;BME280;64964;48.694;21.206;2023-02-10T08:20:24;99869.63;;;1.76;50.35
76195;BME280;64964;48.694;21.206;2023-02-10T08:22:56;99869.38;;;2.39;49.00
76195;BME280;64964;48.694;21.206;2023-02-10T08:25:22;99867.44;;;2.97;47.04
76195;BME280;64964;48.694;21.206;2023-02-10T08:27:47;99864.78;;;3.49;46.83
76195;BME280;64964;48.694;21.206;2023-02-10T08:30:13;99862.69;;;3.73;45.39
76195;BME280;64964;48.694;21.206;2023-02-10T08:32:38;99863.13;;;3.31;44.86
76195;BME280;64964;48.694;21.206;2023-02-10T08:35:04;99866.59;;;2.61;45.83
76195;BME280;64964;48.694;21.206;2023-02-10T08:37:29;99861.16;;;2.46;47.15
76195;BME280;64964;48.694;21.206;2023-02-10T08:39:55;99873.06;;;2.71;47.44
76195;BME280;64964;48.694;21.206;2023-02-10T08:42:20;99859.13;;;3.07;47.71
76195;BME280;64964;48.694;21.206;2023-02-10T08:44:46;99869.53;;;3.92;45.61
76195;BME280;64964;48.694;21.206;2023-02-10T08:47:11;99869.16;;;4.63;44.44
76195;BME280;64964;48.694;21.206;2023-02-10T08:49:40;99865.72;;;5.08;43.37
76195;BME280;64964;48.694;21.206;2023-02-10T08:52:05;99864.13;;;5.36;41.60
76195;BME280;64964;48.694;21.206;2023-02-10T08:54:31;99875.22;;;5.69;42.48
76195;BME280;64964;48.694;21.206;2023-02-10T08:56:56;99888.47;;;5.96;42.29
76195;BME280;64964;48.694;21.206;2023-02-10T08:59:22;99893.53;;;6.14;42.46
76195;BME280;64964;48.694;21.206;2023-02-10T09:01:49;99895.75;;;6.48;42.19
76195;BME280;64964;48.694;21.206;2023-02-10T09:04:15;99900.28;;;6.32;40.67
76195;BME280;64964;48.694;21.206;2023-02-10T09:06:40;99902.13;;;5.73;38.54
76195;BME280;64964;48.694;21.206;2023-02-10T09:09:09;99900.34;;;5.73;40.21
76195;BME280;64964;48.694;21.206;2023-02-10T09:11:35;99894.34;;;6.43;40.71
76195;BME280;64964;48.694;21.206;2023-02-10T09:14:01;99881.53;;;7.19;38.59
76195;BME280;64964;48.694;21.206;2023-02-10T09:16:26;99881.88;;;7.40;37.45
76195;BME280;64964;48.694;21.206;2023-02-10T09:18:52;99883.91;;;7.10;36.82
76195;BME280;64964;48.694;21.206;2023-02-10T09:21:17;99877.28;;;7.57;36.55
76195;BME280;64964;48.694;21.206;2023-02-10T09:23:43;99877.34;;;7.42;35.15
76195;BME280;64964;48.694;21.206;2023-02-10T09:26:08;99886.84;;;7.96;36.68
76195;BME280;64964;48.694;21.206;2023-02-10T09:28:34;99884.50;;;8.17;34.70
76195;BME280;64964;48.694;21.206;2023-02-10T09:30:59;99894.63;;;8.72;35.66
76195;BME280;64964;48.694;21.206;2023-02-10T09:33:25;99897.03;;;8.26;33.97
76195;BME280;64964;48.694;21.206;2023-02-10T09:35:50;99895.78;;;8.06;33.48
76195;BME280;64964;48.694;21.206;2023-02-10T09:38:16;99899.72;;;7.88;32.62
76195;BME280;64964;48.694;21.206;2023-02-10T09:41:06;99904.53;;;7.81;33.19
76195;BME280;64964;48.694;21.206;2023-02-10T09:49:15;99898.06;;;7.34;33.85
76195;BME280;64964;48.694;21.206;2023-02-10T09:54:29;99897.06;;;6.41;34.96
76195;BME280;64964;48.694;21.206;2023-02-10T09:57:05;99885.28;;;6.20;35.47
76195;BME280;64964;48.694;21.206;2023-02-10T09:59:33;99889.84;;;6.45;35.47
76195;BME280;64964;48.694;21.206;2023-02-10T10:02:03;99878.50;;;6.44;34.86
76195;BME280;64964;48.694;21.206;2023-02-10T10:04:36;99871.84;;;6.93;35.66
76195;BME280;64964;48.694;21.206;2023-02-10T10:07:24;99877.78;;;7.49;34.88
76195;BME280;64964;48.694;21.206;2023-02-10T10:10:02;99878.91;;;8.21;34.78
76195;BME280;64964;48.694;21.206;2023-02-10T10:12:29;99878.13;;;8.58;33.83
76195;BME280;64964;48.694;21.206;2023-02-10T10:14:55;99887.97;;;8.80;33.87
76195;BME280;64964;48.694;21.206;2023-02-10T10:17:37;99880.41;;;9.10;33.25
76195;BME280;64964;48.694;21.206;2023-02-10T10:20:35;99873.31;;;9.35;32.82
76195;BME280;64964;48.694;21.206;2023-02-10T10:31:13;99865.69;;;8.84;32.79
76195;BME280;64964;48.694;21.206;2023-02-10T10:33:47;99867.97;;;8.64;33.04
76195;BME280;64964;48.694;21.206;2023-02-10T10:36:32;99861.72;;;9.13;33.33
76195;BME280;64964;48.694;21.206;2023-02-10T10:39:01;99860.78;;;9.50;32.76
76195;BME280;64964;48.694;21.206;2023-02-10T10:41:29;99855.53;;;8.90;31.00
76195;BME280;64964;48.694;21.206;2023-02-10T10:43:56;99857.06;;;9.17;31.97
76195;BME280;64964;48.694;21.206;2023-02-10T10:49:09;99849.84;;;9.08;31.40
76195;BME280;64964;48.694;21.206;2023-02-10T10:51:35;99849.31;;;8.91;31.68
76195;BME280;64964;48.694;21.206;2023-02-10T10:54:02;99845.28;;;9.10;32.16
76195;BME280;64964;48.694;21.206;2023-02-10T10:56:48;99859.66;;;8.82;32.85
76195;BME280;64964;48.694;21.206;2023-02-10T10:59:18;99855.97;;;9.19;32.74
76195;BME280;64964;48.694;21.206;2023-02-10T11:01:47;99846.53;;;9.75;32.23
76195;BME280;64964;48.694;21.206;2023-02-10T11:04:18;99839.31;;;10.21;31.69
76195;BME280;64964;48.694;21.206;2023-02-10T11:06:52;99836.28;;;10.48;31.32
76195;BME280;64964;48.694;21.206;2023-02-10T11:09:31;99833.91;;;10.78;31.28
76195;BME280;64964;48.694;21.206;2023-02-10T11:12:31;99825.16;;;11.09;29.68
76195;BME280;64964;48.694;21.206;2023-02-10T11:14:59;99815.84;;;11.15;31.11
76195;BME280;64964;48.694;21.206;2023-02-10T11:17:34;99815.44;;;11.61;30.74
76195;BME280;64964;48.694;21.206;2023-02-10T11:20:05;99819.41;;;11.98;29.33
76195;BME280;64964;48.694;21.206;2023-02-10T11:22:31;99827.28;;;12.18;29.75
76195;BME280;64964;48.694;21.206;2023-02-10T11:24:59;99824.03;;;12.05;29.44
76195;BME280;64964;48.694;21.206;2023-02-10T11:27:24;99826.88;;;11.20;28.80
76195;BME280;64964;48.694;21.206;2023-02-10T11:29:54;99822.69;;;10.53;29.90
76195;BME280;64964;48.694;21.206;2023-02-10T11:32:26;99823.94;;;10.15;29.96
76195;BME280;64964;48.694;21.206;2023-02-10T11:34:54;99811.56;;;9.82;31.00
76195;BME280;64964;48.694;21.206;2023-02-10T11:37:30;99801.25;;;9.45;30.89
76195;BME280;64964;48.694;21.206;2023-02-10T11:39:58;99800.66;;;9.07;31.97
76195;BME280;64964;48.694;21.206;2023-02-10T11:42:28;99797.25;;;8.93;32.94
76195;BME280;64964;48.694;21.206;2023-02-10T11:47:27;99790.66;;;8.40;33.21
76195;BME280;64964;48.694;21.206;2023-02-10T11:49:54;99786.47;;;7.88;33.37
76195;BME280;64964;48.694;21.206;2023-02-10T11:52:22;99797.44;;;7.43;34.26
76195;BME280;64964;48.694;21.206;2023-02-10T11:54:50;99788.78;;;6.90;34.12
76195;BME280;64964;48.694;21.206;2023-02-10T12:10:55;99785.53;;;5.63;36.31
76195;BME280;64964;48.694;21.206;2023-02-10T12:14:02;99780.28;;;5.48;36.70
76195;BME280;64964;48.694;21.206;2023-02-10T12:22:13;99783.00;;;4.58;38.12
76195;BME280;64964;48.694;21.206;2023-02-10T12:24:56;99776.00;;;4.43;38.37
76195;BME280;64964;48.694;21.206;2023-02-10T12:30:33;99775.00;;;4.45;38.96
76195;BME280;64964;48.694;21.206;2023-02-10T12:35:55;99764.19;;;4.52;38.83
76195;BME280;64964;48.694;21.206;2023-02-10T12:43:59;99771.09;;;4.53;38.63
76195;BME280;64964;48.694;21.206;2023-02-10T12:46:52;99775.28;;;4.71;39.10
76195;BME280;64964;48.694;21.206;2023-02-10T12:55:03;99780.75;;;4.96;38.43
76195;BME280;64964;48.694;21.206;2023-02-10T13:02:49;99779.56;;;4.72;38.24
76195;BME280;64964;48.694;21.206;2023-02-10T13:05:19;99776.94;;;4.26;38.68
76195;BME280;64964;48.694;21.206;2023-02-10T13:08:00;99777.13;;;3.91;39.76
76195;BME280;64964;48.694;21.206;2023-02-10T13:13:00;99769.38;;;4.06;39.63
76195;BME280;64964;48.694;21.206;2023-02-10T13:15:34;99769.44;;;3.88;39.88
76195;BME280;64964;48.694;21.206;2023-02-10T13:18:03;99758.72;;;3.93;39.65
76195;BME280;64964;48.694;21.206;2023-02-10T13:21:17;99758.63;;;3.79;39.52
76195;BME280;64964;48.694;21.206;2023-02-10T13:23:53;99769.81;;;3.49;40.32
76195;BME280;64964;48.694;21.206;2023-02-10T13:26:39;99770.38;;;3.38;40.52
76195;BME280;64964;48.694;21.206;2023-02-10T13:34:39;99775.38;;;3.10;40.62
76195;BME280;64964;48.694;21.206;2023-02-10T13:37:15;99768.19;;;3.13;40.64
76195;BME280;64964;48.694;21.206;2023-02-10T13:39:53;99778.25;;;3.21;40.56
76195;BME280;64964;48.694;21.206;2023-02-10T13:42:26;99780.06;;;3.36;40.68
76195;BME280;64964;48.694;21.206;2023-02-10T13:50:48;99778.94;;;3.58;40.05
76195;BME280;64964;48.694;21.206;2023-02-10T13:58:27;99783.94;;;3.62;39.35
76195;BME280;64964;48.694;21.206;2023-02-10T14:00:54;99785.50;;;3.49;39.61
76195;BME280;64964;48.694;21.206;2023-02-10T14:03:29;99775.78;;;3.35;40.14
76195;BME280;64964;48.694;21.206;2023-02-10T14:11:28;99772.13;;;3.22;40.51
76195;BME280;64964;48.694;21.206;2023-02-10T14:14:14;99775.28;;;3.11;41.07
76195;BME280;64964;48.694;21.206;2023-02-10T14:16:41;99775.28;;;2.94;41.20
76195;BME280;64964;48.694;21.206;2023-02-10T14:21:50;99771.75;;;2.78;41.76
76195;BME280;64964;48.694;21.206;2023-02-10T14:24:22;99768.38;;;2.75;42.45
76195;BME280;64964;48.694;21.206;2023-02-10T14:26:50;99762.47;;;2.72;42.24
76195;BME280;64964;48.694;21.206;2023-02-10T14:29:18;99757.38;;;2.52;42.92
76195;BME280;64964;48.694;21.206;2023-02-10T14:31:47;99770.19;;;2.39;43.13
76195;BME280;64964;48.694;21.206;2023-02-10T14:34:34;99766.31;;;2.29;43.13
76195;BME280;64964;48.694;21.206;2023-02-10T14:37:03;99766.75;;;2.19;43.16
76195;BME280;64964;48.694;21.206;2023-02-10T14:39:37;99765.31;;;2.14;43.54
76195;BME280;64964;48.694;21.206;2023-02-10T14:42:05;99768.06;;;2.11;43.59
76195;BME280;64964;48.694;21.206;2023-02-10T14:44:39;99760.22;;;2.11;43.57
76195;BME280;64964;48.694;21.206;2023-02-10T14:47:06;99767.22;;;2.10;43.77
76195;BME280;64964;48.694;21.206;2023-02-10T14:49:31;99770.09;;;2.04;43.81